sensor_id;sensor_type;location;lat;lon;timestamp;P1;durP1;ratioP1;P2;durP2;ratioP2
56746;SDS011;42623;49.978;9.966;2023-02-28T00:00:08;8.67;;;4.87;;
56746;SDS011;42623;49.978;9.966;2023-02-28T00:00:20;13.38;;;6.80;;
56746;SDS011;42623;49.978;9.966;2023-02-28T00:00:30;17.50;;;9.32;;
56746;SDS011;42623;49.978;9.966;2023-02-28T00:00:41;17.60;;;10.30;;
56746;SDS011;42623;49.978;9.966;2023-02-28T00:00:51;14.90;;;9.65;;
56746;SDS011;42623;49.978;9.966;2023-02-28T00:01:01;13.33;;;8.83;;
56746;SDS011;42623;49.978;9.966;2023-02-28T00:01:12;14.27;;;8.87;;
56746;SDS011;42623;49.978;9.966;2023-02-28T00:01:22;19.42;;;12.32;;
56746;SDS011;42623;49.978;9.966;2023-02-28T00:01:33;24.55;;;14.93;;
56746;SDS011;42623;49.978;9.966;2023-02-28T00:01:43;31.63;;;18.20;;
56746;SDS011;42623;49.978;9.966;2023-02-28T00:01:53;33.10;;;17.70;;
56746;SDS011;42623;49.978;9.966;2023-02-28T00:02:03;34.13;;;19.80;;
56746;SDS011;42623;49.978;9.966;2023-02-28T00:02:14;28.83;;;17.65;;
56746;SDS011;42623;49.978;9.966;2023-02-28T00:02:24;20.33;;;14.07;;
56746;SDS011;42623;49.978;9.966;2023-02-28T00:02:34;15.90;;;10.80;;
56746;SDS011;42623;49.978;9.966;2023-02-28T00:02:45;14.93;;;8.88;;
56746;SDS011;42623;49.978;9.966;2023-02-28T00:02:56;16.63;;;8.40;;
56746;SDS011;42623;49.978;9.966;2023-02-28T00:03:06;20.98;;;10.88;;
56746;SDS011;42623;49.978;9.966;2023-02-28T00:03:16;21.03;;;12.40;;
56746;SDS011;42623;49.978;9.966;2023-02-28T00:03:27;21.17;;;12.30;;
56746;SDS011;42623;49.978;9.966;2023-02-28T00:03:37;19.42;;;10.98;;
56746;SDS011;42623;49.978;9.966;2023-02-28T00:03:48;22.03;;;11.30;;
56746;SDS011;42623;49.978;9.966;2023-02-28T00:03:58;18.57;;;10.07;;
56746;SDS011;42623;49.978;9.966;2023-02-28T00:04:08;14.23;;;7.97;;
56746;SDS011;42623;49.978;9.966;2023-02-28T00:04:19;9.45;;;5.80;;
56746;SDS011;42623;49.978;9.966;2023-02-28T00:04:29;10.60;;;5.60;;
56746;SDS011;42623;49.978;9.966;2023-02-28T00:04:39;17.20;;;8.87;;
56746;SDS011;42623;49.978;9.966;2023-02-28T00:04:53;19.48;;;10.57;;
56746;SDS011;42623;49.978;9.966;2023-02-28T00:05:11;12.73;;;6.78;;
56746;SDS011;42623;49.978;9.966;2023-02-28T00:05:22;11.85;;;6.25;;
56746;SDS011;42623;49.978;9.966;2023-02-28T00:05:33;12.30;;;7.60;;
56746;SDS011;42623;49.978;9.966;2023-02-28T00:05:43;14.48;;;9.35;;
56746;SDS011;42623;49.978;9.966;2023-02-28T00:05:53;17.63;;;11.63;;
56746;SDS011;42623;49.978;9.966;2023-02-28T00:06:04;17.60;;;11.17;;
56746;SDS011;42623;49.978;9.966;2023-02-28T00:06:15;17.38;;;11.68;;
56746;SDS011;42623;49.978;9.966;2023-02-28T00:06:25;16.65;;;11.73;;
56746;SDS011;42623;49.978;9.966;2023-02-28T00:06:35;22.93;;;14.37;;
56746;SDS011;42623;49.978;9.966;2023-02-28T00:06:45;29.43;;;14.27;;
56746;SDS011;42623;49.978;9.966;2023-02-28T00:06:56;40.87;;;20.10;;
56746;SDS011;42623;49.978;9.966;2023-02-28T00:07:06;44.93;;;24.30;;
56746;SDS011;42623;49.978;9.966;2023-02-28T00:07:16;51.40;;;31.47;;
56746;SDS011;42623;49.978;9.966;2023-02-28T00:07:27;54.47;;;32.47;;
56746;SDS011;42623;49.978;9.966;2023-02-28T00:07:37;54.36;;;31.80;;
56746;SDS011;42623;49.978;9.966;2023-02-28T00:07:47;47.83;;;27.70;;
56746;SDS011;42623;49.978;9.966;2023-02-28T00:07:58;38.27;;;23.07;;
56746;SDS011;42623;49.978;9.966;2023-02-28T00:08:08;37.20;;;20.97;;
56746;SDS011;42623;49.978;9.966;2023-02-28T00:08:18;35.05;;;19.67;;
56746;SDS011;42623;49.978;9.966;2023-02-28T00:08:28;37.27;;;20.57;;
56746;SDS011;42623;49.978;9.966;2023-02-28T00:08:38;40.27;;;22.80;;
56746;SDS011;42623;49.978;9.966;2023-02-28T00:08:49;38.95;;;20.98;;
56746;SDS011;42623;49.978;9.966;2023-02-28T00:08:59;37.30;;;20.30;;
56746;SDS011;42623;49.978;9.966;2023-02-28T00:09:09;36.13;;;18.47;;
56746;SDS011;42623;49.978;9.966;2023-02-28T00:09:19;33.07;;;17.10;;
56746;SDS011;42623;49.978;9.966;2023-02-28T00:09:29;27.67;;;15.17;;
56746;SDS011;42623;49.978;9.966;2023-02-28T00:09:39;22.55;;;14.57;;
56746;SDS011;42623;49.978;9.966;2023-02-28T00:09:50;24.57;;;17.30;;
56746;SDS011;42623;49.978;9.966;2023-02-28T00:10:00;22.03;;;14.83;;
56746;SDS011;42623;49.978;9.966;2023-02-28T00:10:11;16.07;;;11.53;;
56746;SDS011;42623;49.978;9.966;2023-02-28T00:10:23;11.95;;;8.48;;
56746;SDS011;42623;49.978;9.966;2023-02-28T00:10:33;10.60;;;7.55;;
56746;SDS011;42623;49.978;9.966;2023-02-28T00:10:43;8.73;;;6.03;;
56746;SDS011;42623;49.978;9.966;2023-02-28T00:10:54;9.77;;;5.63;;
56746;SDS011;42623;49.978;9.966;2023-02-28T00:11:08;10.07;;;5.53;;
56746;SDS011;42623;49.978;9.966;2023-02-28T00:11:18;12.40;;;7.38;;
56746;SDS011;42623;49.978;9.966;2023-02-28T00:11:28;14.50;;;7.87;;
56746;SDS011;42623;49.978;9.966;2023-02-28T00:11:38;15.13;;;7.63;;
56746;SDS011;42623;49.978;9.966;2023-02-28T00:11:48;17.53;;;7.57;;
56746;SDS011;42623;49.978;9.966;2023-02-28T00:11:59;18.70;;;9.75;;
56746;SDS011;42623;49.978;9.966;2023-02-28T00:12:09;21.77;;;11.17;;
56746;SDS011;42623;49.978;9.966;2023-02-28T00:12:20;17.17;;;10.10;;
56746;SDS011;42623;49.978;9.966;2023-02-28T00:12:30;16.70;;;9.00;;
56746;SDS011;42623;49.978;9.966;2023-02-28T00:12:40;14.03;;;7.93;;
56746;SDS011;42623;49.978;9.966;2023-02-28T00:12:51;13.68;;;7.13;;
56746;SDS011;42623;49.978;9.966;2023-02-28T00:13:03;11.98;;;6.47;;
56746;SDS011;42623;49.978;9.966;2023-02-28T00:13:14;13.30;;;7.63;;
56746;SDS011;42623;49.978;9.966;2023-02-28T00:13:24;15.27;;;8.37;;
56746;SDS011;42623;49.978;9.966;2023-02-28T00:13:35;16.08;;;8.48;;
56746;SDS011;42623;49.978;9.966;2023-02-28T00:13:46;14.32;;;7.13;;
56746;SDS011;42623;49.978;9.966;2023-02-28T00:13:56;12.02;;;6.15;;
56746;SDS011;42623;49.978;9.966;2023-02-28T00:14:06;9.63;;;5.43;;
56746;SDS011;42623;49.978;9.966;2023-02-28T00:14:16;11.67;;;6.97;;
56746;SDS011;42623;49.978;9.966;2023-02-28T00:14:27;12.02;;;7.32;;
56746;SDS011;42623;49.978;9.966;2023-02-28T00:14:37;11.53;;;7.27;;
56746;SDS011;42623;49.978;9.966;2023-02-28T00:14:47;8.83;;;5.83;;
56746;SDS011;42623;49.978;9.966;2023-02-28T00:14:57;9.03;;;5.60;;
56746;SDS011;42623;49.978;9.966;2023-02-28T00:15:09;11.73;;;6.63;;
56746;SDS011;42623;49.978;9.966;2023-02-28T00:15:19;13.73;;;7.88;;
56746;SDS011;42623;49.978;9.966;2023-02-28T00:15:30;13.82;;;8.07;;
56746;SDS011;42623;49.978;9.966;2023-02-28T00:15:40;11.10;;;6.57;;
56746;SDS011;42623;49.978;9.966;2023-02-28T00:15:58;12.25;;;6.82;;
56746;SDS011;42623;49.978;9.966;2023-02-28T00:16:09;12.63;;;6.93;;
56746;SDS011;42623;49.978;9.966;2023-02-28T00:16:20;10.77;;;6.32;;
56746;SDS011;42623;49.978;9.966;2023-02-28T00:16:31;12.02;;;7.85;;
56746;SDS011;42623;49.978;9.966;2023-02-28T00:16:41;16.00;;;10.63;;
56746;SDS011;42623;49.978;9.966;2023-02-28T00:16:51;18.70;;;13.60;;
56746;SDS011;42623;49.978;9.966;2023-02-28T00:17:01;19.17;;;13.73;;
56746;SDS011;42623;49.978;9.966;2023-02-28T00:17:12;17.70;;;12.20;;
56746;SDS011;42623;49.978;9.966;2023-02-28T00:17:22;18.10;;;11.03;;
56746;SDS011;42623;49.978;9.966;2023-02-28T00:17:32;17.70;;;10.67;;
56746;SDS011;42623;49.978;9.966;2023-02-28T00:17:42;17.53;;;11.37;;
56746;SDS011;42623;49.978;9.966;2023-02-28T00:17:53;15.65;;;11.18;;
56746;SDS011;42623;49.978;9.966;2023-02-28T00:18:03;14.20;;;9.73;;
56746;SDS011;42623;49.978;9.966;2023-02-28T00:18:13;12.43;;;7.13;;
56746;SDS011;42623;49.978;9.966;2023-02-28T00:18:23;10.50;;;5.07;;
56746;SDS011;42623;49.978;9.966;2023-02-28T00:18:34;9.90;;;4.87;;
56746;SDS011;42623;49.978;9.966;2023-02-28T00:18:44;10.20;;;5.50;;
56746;SDS011;42623;49.978;9.966;2023-02-28T00:18:54;9.98;;;6.15;;
56746;SDS011;42623;49.978;9.966;2023-02-28T00:19:04;9.93;;;6.20;;
56746;SDS011;42623;49.978;9.966;2023-02-28T00:19:14;8.97;;;5.97;;
56746;SDS011;42623;49.978;9.966;2023-02-28T00:19:24;9.70;;;6.20;;
56746;SDS011;42623;49.978;9.966;2023-02-28T00:19:34;10.10;;;6.43;;
56746;SDS011;42623;49.978;9.966;2023-02-28T00:19:45;10.40;;;6.43;;
56746;SDS011;42623;49.978;9.966;2023-02-28T00:19:55;9.87;;;6.23;;
56746;SDS011;42623;49.978;9.966;2023-02-28T00:20:06;12.00;;;5.97;;
56746;SDS011;42623;49.978;9.966;2023-02-28T00:20:20;11.90;;;5.35;;
56746;SDS011;42623;49.978;9.966;2023-02-28T00:20:30;9.37;;;4.97;;
56746;SDS011;42623;49.978;9.966;2023-02-28T00:20:40;9.50;;;5.10;;
56746;SDS011;42623;49.978;9.966;2023-02-28T00:20:50;10.20;;;5.43;;
56746;SDS011;42623;49.978;9.966;2023-02-28T00:21:00;11.07;;;5.60;;
56746;SDS011;42623;49.978;9.966;2023-02-28T00:21:10;10.30;;;5.43;;
56746;SDS011;42623;49.978;9.966;2023-02-28T00:21:21;9.97;;;5.20;;
56746;SDS011;42623;49.978;9.966;2023-02-28T00:21:31;8.63;;;5.07;;
56746;SDS011;42623;49.978;9.966;2023-02-28T00:21:41;9.68;;;5.20;;
56746;SDS011;42623;49.978;9.966;2023-02-28T00:21:52;9.05;;;5.10;;
56746;SDS011;42623;49.978;9.966;2023-02-28T00:22:02;8.57;;;4.67;;
56746;SDS011;42623;49.978;9.966;2023-02-28T00:22:13;8.70;;;4.30;;
56746;SDS011;42623;49.978;9.966;2023-02-28T00:22:23;8.53;;;4.10;;
56746;SDS011;42623;49.978;9.966;2023-02-28T00:22:33;8.60;;;4.30;;
56746;SDS011;42623;49.978;9.966;2023-02-28T00:22:44;7.67;;;4.43;;
56746;SDS011;42623;49.978;9.966;2023-02-28T00:22:55;8.15;;;4.70;;
56746;SDS011;42623;49.978;9.966;2023-02-28T00:23:05;8.83;;;5.03;;
56746;SDS011;42623;49.978;9.966;2023-02-28T00:23:15;8.50;;;4.87;;
56746;SDS011;42623;49.978;9.966;2023-02-28T00:23:25;7.93;;;4.70;;
56746;SDS011;42623;49.978;9.966;2023-02-28T00:23:36;7.67;;;4.80;;
56746;SDS011;42623;49.978;9.966;2023-02-28T00:23:46;7.47;;;4.70;;
56746;SDS011;42623;49.978;9.966;2023-02-28T00:23:56;8.27;;;5.27;;
56746;SDS011;42623;49.978;9.966;2023-02-28T00:24:06;10.07;;;5.80;;
56746;SDS011;42623;49.978;9.966;2023-02-28T00:24:16;10.67;;;6.23;;
56746;SDS011;42623;49.978;9.966;2023-02-28T00:24:27;11.17;;;6.17;;
56746;SDS011;42623;49.978;9.966;2023-02-28T00:24:37;9.43;;;5.63;;
56746;SDS011;42623;49.978;9.966;2023-02-28T00:24:47;9.37;;;5.70;;
56746;SDS011;42623;49.978;9.966;2023-02-28T00:24:57;8.73;;;5.23;;
56746;SDS011;42623;49.978;9.966;2023-02-28T00:25:12;9.33;;;5.67;;
56746;SDS011;42623;49.978;9.966;2023-02-28T00:25:23;9.20;;;6.25;;
56746;SDS011;42623;49.978;9.966;2023-02-28T00:25:34;9.50;;;7.03;;
56746;SDS011;42623;49.978;9.966;2023-02-28T00:25:44;12.53;;;7.53;;
56746;SDS011;42623;49.978;9.966;2023-02-28T00:25:54;14.25;;;7.57;;
56746;SDS011;42623;49.978;9.966;2023-02-28T00:26:04;14.43;;;7.60;;
56746;SDS011;42623;49.978;9.966;2023-02-28T00:26:14;12.30;;;6.43;;
56746;SDS011;42623;49.978;9.966;2023-02-28T00:26:25;11.30;;;6.97;;
56746;SDS011;42623;49.978;9.966;2023-02-28T00:26:35;14.03;;;7.63;;
56746;SDS011;42623;49.978;9.966;2023-02-28T00:26:45;14.43;;;8.68;;
56746;SDS011;42623;49.978;9.966;2023-02-28T00:26:55;13.97;;;8.03;;
56746;SDS011;42623;49.978;9.966;2023-02-28T00:27:05;10.27;;;6.53;;
56746;SDS011;42623;49.978;9.966;2023-02-28T00:27:15;8.30;;;5.23;;
56746;SDS011;42623;49.978;9.966;2023-02-28T00:27:25;7.85;;;5.03;;
56746;SDS011;42623;49.978;9.966;2023-02-28T00:27:36;8.70;;;5.23;;
56746;SDS011;42623;49.978;9.966;2023-02-28T00:27:46;8.77;;;4.73;;
56746;SDS011;42623;49.978;9.966;2023-02-28T00:27:57;8.97;;;4.43;;
56746;SDS011;42623;49.978;9.966;2023-02-28T00:28:07;9.93;;;4.57;;
56746;SDS011;42623;49.978;9.966;2023-02-28T00:28:17;9.67;;;4.43;;
56746;SDS011;42623;49.978;9.966;2023-02-28T00:28:28;9.55;;;4.50;;
56746;SDS011;42623;49.978;9.966;2023-02-28T00:28:38;8.43;;;4.37;;
56746;SDS011;42623;49.978;9.966;2023-02-28T00:28:48;8.63;;;4.60;;
56746;SDS011;42623;49.978;9.966;2023-02-28T00:28:58;7.47;;;4.22;;
56746;SDS011;42623;49.978;9.966;2023-02-28T00:29:08;9.27;;;4.43;;
56746;SDS011;42623;49.978;9.966;2023-02-28T00:29:19;8.75;;;4.20;;
56746;SDS011;42623;49.978;9.966;2023-02-28T00:29:29;8.93;;;4.50;;
56746;SDS011;42623;49.978;9.966;2023-02-28T00:29:39;6.23;;;4.00;;
56746;SDS011;42623;49.978;9.966;2023-02-28T00:29:49;5.63;;;3.70;;
56746;SDS011;42623;49.978;9.966;2023-02-28T00:35:47;5.95;;;3.78;;
56746;SDS011;42623;49.978;9.966;2023-02-28T00:36:05;10.40;;;5.68;;
56746;SDS011;42623;49.978;9.966;2023-02-28T00:36:16;9.15;;;4.88;;
56746;SDS011;42623;49.978;9.966;2023-02-28T00:36:26;8.33;;;4.00;;
56746;SDS011;42623;49.978;9.966;2023-02-28T00:36:36;10.52;;;5.00;;
56746;SDS011;42623;49.978;9.966;2023-02-28T00:36:46;12.40;;;5.93;;
56746;SDS011;42623;49.978;9.966;2023-02-28T00:36:58;11.07;;;5.63;;
56746;SDS011;42623;49.978;9.966;2023-02-28T00:37:09;10.10;;;4.73;;
56746;SDS011;42623;49.978;9.966;2023-02-28T00:37:19;8.23;;;4.15;;
56746;SDS011;42623;49.978;9.966;2023-02-28T00:37:29;8.30;;;4.63;;
56746;SDS011;42623;49.978;9.966;2023-02-28T00:37:39;8.13;;;4.67;;
56746;SDS011;42623;49.978;9.966;2023-02-28T00:37:49;8.20;;;4.55;;
56746;SDS011;42623;49.978;9.966;2023-02-28T00:38:00;8.17;;;4.53;;
56746;SDS011;42623;49.978;9.966;2023-02-28T00:38:10;8.10;;;4.57;;
56746;SDS011;42623;49.978;9.966;2023-02-28T00:38:20;8.03;;;4.43;;
56746;SDS011;42623;49.978;9.966;2023-02-28T00:38:30;7.63;;;3.90;;
56746;SDS011;42623;49.978;9.966;2023-02-28T00:38:40;8.43;;;4.23;;
56746;SDS011;42623;49.978;9.966;2023-02-28T00:38:51;8.80;;;4.70;;
56746;SDS011;42623;49.978;9.966;2023-02-28T00:39:01;10.53;;;5.50;;
56746;SDS011;42623;49.978;9.966;2023-02-28T00:39:11;10.53;;;6.00;;
56746;SDS011;42623;49.978;9.966;2023-02-28T00:39:21;9.47;;;5.73;;
56746;SDS011;42623;49.978;9.966;2023-02-28T00:39:32;8.10;;;4.73;;
56746;SDS011;42623;49.978;9.966;2023-02-28T00:39:43;9.75;;;4.45;;
56746;SDS011;42623;49.978;9.966;2023-02-28T00:39:53;10.43;;;4.53;;
56746;SDS011;42623;49.978;9.966;2023-02-28T00:40:03;9.90;;;4.50;;
56746;SDS011;42623;49.978;9.966;2023-02-28T00:40:17;8.05;;;4.15;;
56746;SDS011;42623;49.978;9.966;2023-02-28T00:40:27;8.63;;;4.30;;
56746;SDS011;42623;49.978;9.966;2023-02-28T00:40:37;14.07;;;7.77;;
56746;SDS011;42623;49.978;9.966;2023-02-28T00:40:47;15.97;;;9.93;;
56746;SDS011;42623;49.978;9.966;2023-02-28T00:40:57;15.80;;;9.90;;
56746;SDS011;42623;49.978;9.966;2023-02-28T00:41:08;11.10;;;6.55;;
56746;SDS011;42623;49.978;9.966;2023-02-28T00:41:19;9.63;;;4.50;;
56746;SDS011;42623;49.978;9.966;2023-02-28T00:41:29;9.52;;;4.43;;
56746;SDS011;42623;49.978;9.966;2023-02-28T00:41:39;7.63;;;4.17;;
56746;SDS011;42623;49.978;9.966;2023-02-28T00:41:49;6.53;;;3.77;;
56746;SDS011;42623;49.978;9.966;2023-02-28T00:42:02;10.45;;;7.10;;
56746;SDS011;42623;49.978;9.966;2023-02-28T00:42:15;26.02;;;18.42;;
56746;SDS011;42623;49.978;9.966;2023-02-28T00:42:26;30.60;;;21.17;;
56746;SDS011;42623;49.978;9.966;2023-02-28T00:42:36;22.60;;;16.03;;
56746;SDS011;42623;49.978;9.966;2023-02-28T00:42:46;16.07;;;11.00;;
56746;SDS011;42623;49.978;9.966;2023-02-28T00:42:56;13.43;;;9.37;;
56746;SDS011;42623;49.978;9.966;2023-02-28T00:43:06;11.03;;;7.30;;
56746;SDS011;42623;49.978;9.966;2023-02-28T00:43:17;10.77;;;6.40;;
56746;SDS011;42623;49.978;9.966;2023-02-28T00:43:27;10.37;;;6.20;;
56746;SDS011;42623;49.978;9.966;2023-02-28T00:43:37;10.98;;;6.30;;
56746;SDS011;42623;49.978;9.966;2023-02-28T00:43:48;9.83;;;6.13;;
56746;SDS011;42623;49.978;9.966;2023-02-28T00:43:58;10.30;;;6.17;;
56746;SDS011;42623;49.978;9.966;2023-02-28T00:44:08;9.70;;;5.67;;
56746;SDS011;42623;49.978;9.966;2023-02-28T00:44:19;9.35;;;5.30;;
56746;SDS011;42623;49.978;9.966;2023-02-28T00:44:31;9.75;;;5.50;;
56746;SDS011;42623;49.978;9.966;2023-02-28T00:44:41;9.17;;;5.67;;
56746;SDS011;42623;49.978;9.966;2023-02-28T00:44:51;9.27;;;5.60;;
56746;SDS011;42623;49.978;9.966;2023-02-28T00:45:02;15.00;;;8.80;;
56746;SDS011;42623;49.978;9.966;2023-02-28T00:45:14;16.83;;;9.88;;
56746;SDS011;42623;49.978;9.966;2023-02-28T00:45:24;17.97;;;9.73;;
56746;SDS011;42623;49.978;9.966;2023-02-28T00:45:34;14.43;;;7.17;;
56746;SDS011;42623;49.978;9.966;2023-02-28T00:45:44;12.27;;;6.00;;
56746;SDS011;42623;49.978;9.966;2023-02-28T00:45:54;12.60;;;6.43;;
56746;SDS011;42623;49.978;9.966;2023-02-28T00:46:05;11.57;;;6.57;;
56746;SDS011;42623;49.978;9.966;2023-02-28T00:46:15;12.00;;;7.13;;
56746;SDS011;42623;49.978;9.966;2023-02-28T00:46:25;17.00;;;10.73;;
56746;SDS011;42623;49.978;9.966;2023-02-28T00:46:35;25.07;;;16.90;;
56746;SDS011;42623;49.978;9.966;2023-02-28T00:46:46;46.90;;;32.67;;
56746;SDS011;42623;49.978;9.966;2023-02-28T00:46:56;53.93;;;36.47;;
56746;SDS011;42623;49.978;9.966;2023-02-28T00:47:06;49.73;;;33.23;;
56746;SDS011;42623;49.978;9.966;2023-02-28T00:47:17;29.08;;;18.38;;
56746;SDS011;42623;49.978;9.966;2023-02-28T00:47:27;18.10;;;11.97;;
56746;SDS011;42623;49.978;9.966;2023-02-28T00:47:37;15.17;;;9.43;;
56746;SDS011;42623;49.978;9.966;2023-02-28T00:47:47;12.93;;;7.95;;
56746;SDS011;42623;49.978;9.966;2023-02-28T00:47:59;11.15;;;7.35;;
56746;SDS011;42623;49.978;9.966;2023-02-28T00:48:09;10.07;;;6.47;;
56746;SDS011;42623;49.978;9.966;2023-02-28T00:48:19;8.73;;;5.30;;
56746;SDS011;42623;49.978;9.966;2023-02-28T00:48:30;9.57;;;5.63;;
56746;SDS011;42623;49.978;9.966;2023-02-28T00:48:40;12.43;;;7.22;;
56746;SDS011;42623;49.978;9.966;2023-02-28T00:48:50;13.93;;;8.43;;
56746;SDS011;42623;49.978;9.966;2023-02-28T00:49:00;15.07;;;9.30;;
56746;SDS011;42623;49.978;9.966;2023-02-28T00:49:10;17.10;;;9.67;;
56746;SDS011;42623;49.978;9.966;2023-02-28T00:49:21;20.43;;;11.23;;
56746;SDS011;42623;49.978;9.966;2023-02-28T00:49:31;20.65;;;10.25;;
56746;SDS011;42623;49.978;9.966;2023-02-28T00:49:41;15.73;;;8.47;;
56746;SDS011;42623;49.978;9.966;2023-02-28T00:49:51;12.37;;;6.80;;
56746;SDS011;42623;49.978;9.966;2023-02-28T00:50:02;12.03;;;6.83;;
56746;SDS011;42623;49.978;9.966;2023-02-28T00:50:12;12.80;;;7.05;;
56746;SDS011;42623;49.978;9.966;2023-02-28T00:50:22;11.77;;;5.90;;
56746;SDS011;42623;49.978;9.966;2023-02-28T00:50:32;10.23;;;5.82;;
56746;SDS011;42623;49.978;9.966;2023-02-28T00:50:42;9.03;;;5.53;;
56746;SDS011;42623;49.978;9.966;2023-02-28T00:50:53;12.07;;;6.67;;
56746;SDS011;42623;49.978;9.966;2023-02-28T00:51:03;11.37;;;5.90;;
56746;SDS011;42623;49.978;9.966;2023-02-28T00:51:13;11.43;;;6.15;;
56746;SDS011;42623;49.978;9.966;2023-02-28T00:51:23;9.57;;;5.77;;
56746;SDS011;42623;49.978;9.966;2023-02-28T00:51:33;10.13;;;6.37;;
56746;SDS011;42623;49.978;9.966;2023-02-28T00:51:44;10.40;;;6.07;;
56746;SDS011;42623;49.978;9.966;2023-02-28T00:51:54;10.43;;;5.57;;
56746;SDS011;42623;49.978;9.966;2023-02-28T00:52:04;9.80;;;5.35;;
56746;SDS011;42623;49.978;9.966;2023-02-28T00:52:15;11.37;;;5.53;;
56746;SDS011;42623;49.978;9.966;2023-02-28T00:52:25;11.37;;;5.60;;
56746;SDS011;42623;49.978;9.966;2023-02-28T00:52:35;10.73;;;5.23;;
56746;SDS011;42623;49.978;9.966;2023-02-28T00:52:45;8.48;;;4.93;;
56746;SDS011;42623;49.978;9.966;2023-02-28T00:52:56;7.87;;;5.00;;
56746;SDS011;42623;49.978;9.966;2023-02-28T00:53:06;9.87;;;6.07;;
56746;SDS011;42623;49.978;9.966;2023-02-28T00:53:16;11.13;;;6.00;;
56746;SDS011;42623;49.978;9.966;2023-02-28T00:53:26;11.17;;;5.77;;
56746;SDS011;42623;49.978;9.966;2023-02-28T00:53:36;11.17;;;5.77;;
56746;SDS011;42623;49.978;9.966;2023-02-28T00:53:46;11.67;;;6.63;;
56746;SDS011;42623;49.978;9.966;2023-02-28T00:53:56;13.93;;;7.70;;
56746;SDS011;42623;49.978;9.966;2023-02-28T00:54:07;14.63;;;8.33;;
56746;SDS011;42623;49.978;9.966;2023-02-28T00:54:17;15.82;;;9.70;;
56746;SDS011;42623;49.978;9.966;2023-02-28T00:54:27;15.87;;;9.83;;
56746;SDS011;42623;49.978;9.966;2023-02-28T00:54:37;16.40;;;9.90;;
56746;SDS011;42623;49.978;9.966;2023-02-28T00:54:47;14.77;;;8.60;;
56746;SDS011;42623;49.978;9.966;2023-02-28T00:54:57;13.43;;;8.00;;
56746;SDS011;42623;49.978;9.966;2023-02-28T00:55:08;13.00;;;8.43;;
56746;SDS011;42623;49.978;9.966;2023-02-28T00:55:18;14.73;;;8.37;;
56746;SDS011;42623;49.978;9.966;2023-02-28T00:55:28;15.20;;;8.50;;
56746;SDS011;42623;49.978;9.966;2023-02-28T00:55:38;13.85;;;7.20;;
56746;SDS011;42623;49.978;9.966;2023-02-28T00:55:49;12.53;;;7.10;;
56746;SDS011;42623;49.978;9.966;2023-02-28T00:55:59;11.35;;;6.50;;
56746;SDS011;42623;49.978;9.966;2023-02-28T00:56:10;12.03;;;6.43;;
56746;SDS011;42623;49.978;9.966;2023-02-28T00:56:20;10.93;;;5.93;;
56746;SDS011;42623;49.978;9.966;2023-02-28T00:56:30;10.50;;;5.45;;
56746;SDS011;42623;49.978;9.966;2023-02-28T00:56:40;10.20;;;5.00;;
56746;SDS011;42623;49.978;9.966;2023-02-28T00:56:50;11.57;;;5.27;;
56746;SDS011;42623;49.978;9.966;2023-02-28T00:57:00;11.20;;;5.53;;
56746;SDS011;42623;49.978;9.966;2023-02-28T00:57:11;9.05;;;4.95;;
56746;SDS011;42623;49.978;9.966;2023-02-28T00:57:21;7.37;;;4.40;;
56746;SDS011;42623;49.978;9.966;2023-02-28T00:57:31;7.87;;;4.17;;
56746;SDS011;42623;49.978;9.966;2023-02-28T00:57:41;7.77;;;4.10;;
56746;SDS011;42623;49.978;9.966;2023-02-28T00:57:51;9.07;;;4.55;;
56746;SDS011;42623;49.978;9.966;2023-02-28T00:58:01;9.00;;;4.63;;
56746;SDS011;42623;49.978;9.966;2023-02-28T00:58:12;11.43;;;5.30;;
56746;SDS011;42623;49.978;9.966;2023-02-28T00:58:22;11.10;;;5.07;;
56746;SDS011;42623;49.978;9.966;2023-02-28T00:58:32;10.93;;;5.17;;
56746;SDS011;42623;49.978;9.966;2023-02-28T00:58:42;10.02;;;4.78;;
56746;SDS011;42623;49.978;9.966;2023-02-28T00:58:52;10.00;;;4.73;;
56746;SDS011;42623;49.978;9.966;2023-02-28T00:59:02;9.57;;;4.20;;
56746;SDS011;42623;49.978;9.966;2023-02-28T00:59:13;9.67;;;4.97;;
56746;SDS011;42623;49.978;9.966;2023-02-28T00:59:23;11.73;;;5.43;;
56746;SDS011;42623;49.978;9.966;2023-02-28T00:59:34;11.37;;;5.47;;
56746;SDS011;42623;49.978;9.966;2023-02-28T00:59:44;9.90;;;4.72;;
56746;SDS011;42623;49.978;9.966;2023-02-28T00:59:54;8.30;;;4.67;;
56746;SDS011;42623;49.978;9.966;2023-02-28T01:00:05;8.15;;;4.35;;
56746;SDS011;42623;49.978;9.966;2023-02-28T01:00:16;7.72;;;4.25;;
56746;SDS011;42623;49.978;9.966;2023-02-28T01:00:26;7.77;;;4.03;;
56746;SDS011;42623;49.978;9.966;2023-02-28T01:00:36;8.70;;;4.40;;
56746;SDS011;42623;49.978;9.966;2023-02-28T01:00:46;10.38;;;4.35;;
56746;SDS011;42623;49.978;9.966;2023-02-28T01:00:58;11.18;;;4.47;;
56746;SDS011;42623;49.978;9.966;2023-02-28T01:01:08;10.40;;;4.67;;
56746;SDS011;42623;49.978;9.966;2023-02-28T01:01:18;9.87;;;5.83;;
56746;SDS011;42623;49.978;9.966;2023-02-28T01:01:29;10.77;;;6.60;;
56746;SDS011;42623;49.978;9.966;2023-02-28T01:01:39;10.13;;;6.45;;
56746;SDS011;42623;49.978;9.966;2023-02-28T01:01:49;10.23;;;5.30;;
56746;SDS011;42623;49.978;9.966;2023-02-28T01:01:59;9.30;;;5.40;;
56746;SDS011;42623;49.978;9.966;2023-02-28T01:02:10;10.18;;;5.65;;
56746;SDS011;42623;49.978;9.966;2023-02-28T01:02:20;9.97;;;5.77;;
56746;SDS011;42623;49.978;9.966;2023-02-28T01:02:31;9.73;;;4.97;;
56746;SDS011;42623;49.978;9.966;2023-02-28T01:02:41;9.63;;;5.07;;
56746;SDS011;42623;49.978;9.966;2023-02-28T01:02:51;9.00;;;4.83;;
56746;SDS011;42623;49.978;9.966;2023-02-28T01:03:01;8.53;;;4.70;;
56746;SDS011;42623;49.978;9.966;2023-02-28T01:03:11;8.27;;;4.72;;
56746;SDS011;42623;49.978;9.966;2023-02-28T01:03:21;8.93;;;4.87;;
56746;SDS011;42623;49.978;9.966;2023-02-28T01:03:32;8.77;;;4.75;;
56746;SDS011;42623;49.978;9.966;2023-02-28T01:03:42;7.93;;;4.23;;
56746;SDS011;42623;49.978;9.966;2023-02-28T01:03:53;6.90;;;4.20;;
56746;SDS011;42623;49.978;9.966;2023-02-28T01:04:03;7.75;;;4.72;;
56746;SDS011;42623;49.978;9.966;2023-02-28T01:04:13;8.33;;;4.80;;
56746;SDS011;42623;49.978;9.966;2023-02-28T01:04:24;9.47;;;4.53;;
56746;SDS011;42623;49.978;9.966;2023-02-28T01:04:34;9.10;;;4.20;;
56746;SDS011;42623;49.978;9.966;2023-02-28T01:04:44;8.43;;;4.17;;
56746;SDS011;42623;49.978;9.966;2023-02-28T01:04:54;7.93;;;4.20;;
56746;SDS011;42623;49.978;9.966;2023-02-28T01:05:04;12.07;;;5.23;;
56746;SDS011;42623;49.978;9.966;2023-02-28T01:05:15;12.18;;;5.22;;
56746;SDS011;42623;49.978;9.966;2023-02-28T01:05:25;13.13;;;5.57;;
56746;SDS011;42623;49.978;9.966;2023-02-28T01:05:35;10.23;;;5.33;;
56746;SDS011;42623;49.978;9.966;2023-02-28T01:05:45;10.02;;;5.70;;
56746;SDS011;42623;49.978;9.966;2023-02-28T01:05:56;8.73;;;5.93;;
56746;SDS011;42623;49.978;9.966;2023-02-28T01:06:06;8.02;;;5.47;;
56746;SDS011;42623;49.978;9.966;2023-02-28T01:06:16;8.40;;;5.40;;
56746;SDS011;42623;49.978;9.966;2023-02-28T01:06:26;7.87;;;4.50;;
56746;SDS011;42623;49.978;9.966;2023-02-28T01:06:37;8.37;;;4.70;;
56746;SDS011;42623;49.978;9.966;2023-02-28T01:06:47;8.25;;;4.60;;
56746;SDS011;42623;49.978;9.966;2023-02-28T01:06:57;8.47;;;4.80;;
56746;SDS011;42623;49.978;9.966;2023-02-28T01:07:07;9.10;;;4.97;;
56746;SDS011;42623;49.978;9.966;2023-02-28T01:07:18;10.40;;;5.35;;
56746;SDS011;42623;49.978;9.966;2023-02-28T01:07:28;11.63;;;5.73;;
56746;SDS011;42623;49.978;9.966;2023-02-28T01:07:38;9.53;;;4.97;;
56746;SDS011;42623;49.978;9.966;2023-02-28T01:07:48;8.23;;;4.70;;
56746;SDS011;42623;49.978;9.966;2023-02-28T01:07:58;7.20;;;4.57;;
56746;SDS011;42623;49.978;9.966;2023-02-28T01:08:08;8.30;;;4.95;;